.
WxDataArchive / Data Records for 2005-12-07
  December 2005 2005-12-08

Data Records for Wednesday, 07 December 2005

Time	Temp	Chill	HIndex	Humid	Dewpt	 Wind 	HiWind	WindDir	Rain 	Barom 
-----	----	-----	------	-----	-----	------	------	-------	-----	----- 
01:05	14.1	14.1	14.1	77	8.2	1	2	248	0.00	30.411 
01:10	14.3	14.3	14.3	77	8.4	2	6	248	0.00	30.411 
01:15	14.4	14.4	14.4	77	8.5	1	5	248	0.00	30.416 
01:20	14.6	14.6	14.6	77	8.7	2	4	248	0.00	30.416 
01:25	14.8	14.8	14.8	77	8.9	1	3	248	0.00	30.416 
01:30	14.6	14.6	14.6	76	8.4	2	6	270	0.00	30.410 
01:35	14.6	14.6	14.6	76	8.4	2	6	270	0.00	30.410 
01:40	14.6	14.6	14.6	77	8.7	2	5	270	0.00	30.410 
01:45	14.4	14.4	14.4	77	8.5	2	3	270	0.00	30.412 
01:50	14.3	14.3	14.3	77	8.4	2	3	248	0.00	30.412 
01:55	14.3	14.3	14.3	77	8.4	1	3	270	0.00	30.412 
02:00	14.1	14.1	14.1	77	8.2	1	4	248	0.00	30.419 
02:05	14.0	14.0	14.0	77	8.1	1	3	248	0.00	30.419 
02:10	14.0	14.0	14.0	78	8.4	1	5	248	0.00	30.419 
02:15	14.0	14.0	14.0	78	8.4	1	4	270	0.00	30.427 
02:20	14.0	14.0	14.0	78	8.4	1	3	270	0.00	30.427 
02:25	14.0	14.0	14.0	77	8.1	1	3	248	0.00	30.427 
02:30	13.8	13.8	13.8	77	7.9	1	2	248	0.00	30.428 
02:35	13.8	13.8	13.8	77	7.9	1	2	248	0.00	30.428 
02:40	13.6	13.6	13.6	77	7.8	1	3	248	0.00	30.428 
02:45	13.6	13.6	13.6	77	7.8	1	3	248	0.00	30.432 
02:50	13.5	13.5	13.5	77	7.7	1	2	248	0.00	30.432 
02:55	13.3	13.3	13.3	77	7.5	0	1	248	0.00	30.432 
03:00	13.1	13.1	13.1	78	7.6	1	2	248	0.00	30.441 
03:05	13.1	13.1	13.1	78	7.6	1	2	248	0.00	30.441 
03:10	13.1	13.1	13.1	78	7.6	1	2	248	0.00	30.441 
03:15	12.9	12.9	12.9	78	7.4	0	2	248	0.00	30.449 
03:20	12.9	12.9	12.9	78	7.4	1	2	248	0.00	30.449 
03:25	12.8	12.8	12.8	78	7.3	1	2	248	0.00	30.449 
03:30	12.8	12.8	12.8	78	7.3	0	1	225	0.00	30.453 
03:35	12.6	12.6	12.6	78	7.1	0	3	270	0.00	30.453 
03:40	12.8	12.8	12.8	78	7.3	1	2	248	0.00	30.453 
03:45	12.8	12.8	12.8	78	7.3	1	3	248	0.00	30.459 
03:50	12.9	12.9	12.9	77	7.1	1	3	270	0.00	30.459 
03:55	12.9	12.9	12.9	77	7.1	1	2	270	0.00	30.459 
04:00	12.8	12.8	12.8	77	7.0	1	3	270	0.00	30.462 
04:05	12.9	12.9	12.9	77	7.1	1	3	270	0.00	30.462 
04:10	12.8	12.8	12.8	77	7.0	1	2	270	0.00	30.462 
04:15	12.6	12.6	12.6	77	6.8	0	2	270	0.00	30.463 
04:20	12.4	12.4	12.4	77	6.6	1	2	270	0.00	30.463 
04:25	12.3	12.3	12.3	77	6.5	0	2	270	0.00	30.463 
04:30	12.1	12.1	12.1	77	6.3	1	2	270	0.00	30.467 
04:35	12.1	12.1	12.1	77	6.3	1	2	248	0.00	30.467 
04:40	11.9	11.9	11.9	77	6.1	1	2	248	0.00	30.467 
04:45	11.9	11.9	11.9	77	6.1	1	2	248	0.00	30.473 
04:50	11.7	11.7	11.7	77	5.9	0	2	248	0.00	30.473 
04:55	11.6	11.6	11.6	77	5.8	1	2	248	0.00	30.473 
05:00	11.6	11.6	11.6	77	5.8	1	2	248	0.00	30.478 
05:05	11.4	11.4	11.4	77	5.6	1	2	248	0.00	30.478 
05:10	11.2	11.2	11.2	75	4.9	2	7	248	0.00	30.478 
05:15	11.4	11.4	11.4	73	4.5	2	5	248	0.00	30.488 
05:20	11.2	11.2	11.2	73	4.3	2	5	248	0.00	30.488 
05:25	11.1	11.1	11.1	73	4.2	2	7	270	0.00	30.488 
05:30	10.7	10.7	10.7	73	3.8	1	2	248	0.00	30.496 
05:35	10.4	10.4	10.4	72	3.2	1	4	248	0.00	30.496 
05:40	10.2	10.2	10.2	72	3.0	1	2	248	0.00	30.496 
05:45	10.0	10.0	10.0	73	3.1	0	2	248	0.00	30.506 
05:50	9.7	9.7	9.7	74	3.1	1	3	248	0.00	30.506 
05:55	9.5	9.5	9.5	74	2.9	1	3	248	0.00	30.506 
06:00	9.3	9.3	9.3	74	2.7	1	4	248	0.00	30.515 
06:05	9.2	9.2	9.2	74	2.6	1	2	248	0.00	30.515 
06:10	9.0	9.0	9.0	74	2.4	1	4	248	0.00	30.515 
06:15	8.8	8.8	8.8	74	2.2	1	5	248	0.00	30.516 
06:20	8.6	8.6	8.6	74	2.0	1	3	248	0.00	30.516 
06:25	8.4	8.4	8.4	75	2.1	1	3	248	0.00	30.516 
06:30	8.4	8.4	8.4	75	2.1	1	3	248	0.00	30.528 
06:35	8.3	8.3	8.3	75	2.0	1	5	248	0.00	30.528 
06:40	8.3	8.3	8.3	75	2.0	1	5	248	0.00	30.528 
06:45	8.1	8.1	8.1	75	1.8	1	3	248	0.00	30.532 
06:50	8.1	8.1	8.1	75	1.8	1	3	248	0.00	30.532 
06:55	7.9	7.9	7.9	74	1.4	1	4	248	0.00	30.532 
07:00	7.7	7.7	7.7	74	1.2	1	4	248	0.00	30.534 
07:05	7.6	7.6	7.6	74	1.1	1	2	248	0.00	30.534 
07:10	7.4	7.4	7.4	74	0.9	0	2	248	0.00	30.534 
07:15	7.2	7.2	7.2	74	0.7	1	3	248	0.00	30.551 
07:20	7.2	7.2	7.2	74	0.7	1	3	248	0.00	30.551 
07:25	7.0	7.0	7.0	74	0.5	1	4	248	0.00	30.551 
07:30	7.0	7.0	7.0	74	0.5	1	3	248	0.00	30.561 
07:35	6.9	6.9	6.9	74	0.4	0	2	248	0.00	30.561 
07:40	6.9	6.9	6.9	74	0.4	1	4	248	0.00	30.561 
07:45	6.7	6.7	6.7	74	0.2	1	3	248	0.00	30.568 
07:50	6.7	6.7	6.7	74	0.2	1	4	248	0.00	30.568 
07:55	6.5	6.5	6.5	74	0.0	1	5	248	0.00	30.568 
08:00	6.3	6.3	6.3	74	-0.2	0	1	248	0.00	30.572 
08:05	6.1	6.1	6.1	74	-0.4	0	2	248	0.00	30.572 
08:10	6.0	6.0	6.0	74	-0.5	0	2	248	0.00	30.572 
08:15	6.0	6.0	6.0	73	-0.8	1	3	248	0.00	30.583 
08:20	6.0	6.0	6.0	72	-1.1	2	5	248	0.00	30.583 
08:25	6.0	6.0	6.0	72	-1.1	1	4	248	0.00	30.583 
08:30	5.8	5.8	5.8	71	-1.5	1	2	248	0.00	30.587 
08:35	6.0	6.0	6.0	71	-1.3	1	4	248	0.00	30.587 
08:40	6.0	6.0	6.0	71	-1.3	1	2	248	0.00	30.587 
08:45	6.0	6.0	6.0	71	-1.3	1	4	248	0.00	30.589 
08:50	6.1	6.1	6.1	70	-1.5	1	5	248	0.00	30.589 
08:55	6.1	6.1	6.1	70	-1.5	1	2	248	0.00	30.589 
09:00	6.3	6.3	6.3	70	-1.4	1	3	248	0.00	30.592 
09:05	6.5	6.5	6.5	70	-1.2	1	3	248	0.00	30.592 
09:10	6.7	6.7	6.7	70	-1.0	1	2	248	0.00	30.592 
09:15	6.9	6.9	6.9	70	-0.8	1	2	248	0.00	30.599 
09:20	7.0	7.0	7.0	70	-0.7	1	3	248	0.00	30.599 
09:25	7.0	7.0	7.0	70	-0.7	1	2	248	0.00	30.599 
09:30	7.2	7.2	7.2	69	-0.8	1	5	270	0.00	30.608 
09:35	7.0	7.0	7.0	69	-1.0	1	5	270	0.00	30.608 
09:40	7.0	7.0	7.0	68	-1.3	1	5	248	0.00	30.608 
09:45	7.0	7.0	7.0	69	-1.0	2	6	248	0.00	30.615 
09:50	7.2	7.2	7.2	68	-1.1	2	6	248	0.00	30.615 
09:55	7.4	7.4	7.4	69	-0.6	1	6	248	0.00	30.615 
10:00	7.7	7.7	7.7	69	-0.3	1	2	248	0.00	30.618 
10:05	7.9	7.9	7.9	68	-0.4	1	3	248	0.00	30.618 
10:10	8.3	8.3	8.3	68	-0.0	1	2	270	0.00	30.618 
10:15	8.4	8.4	8.4	68	0.0	1	5	248	0.00	30.625 
10:20	8.6	8.6	8.6	68	0.2	1	5	248	0.00	30.625 
10:25	8.8	8.8	8.8	68	0.4	1	4	248	0.00	30.625 
10:30	9.3	9.3	9.3	68	0.9	1	3	270	0.00	30.629 
10:35	9.5	9.5	9.5	67	0.8	1	3	270	0.00	30.629 
10:40	9.9	9.9	9.9	67	1.2	1	4	248	0.00	30.629 
10:45	10.0	10.0	10.0	67	1.3	2	5	248	0.00	30.635 
10:50	10.4	10.4	10.4	67	1.6	2	6	248	0.00	30.635 
10:55	10.5	10.5	10.5	67	1.7	1	3	248	0.00	30.635 
11:00	11.1	11.1	11.1	67	2.3	1	3	248	0.00	30.632 
11:05	11.4	11.4	11.4	66	2.3	1	5	248	0.00	30.632 
11:10	11.9	11.9	11.9	67	3.1	1	2	248	0.00	30.632 
11:15	12.3	12.3	12.3	66	3.1	1	3	248	0.00	30.636 
11:20	12.8	12.8	12.8	65	3.3	2	6	248	0.00	30.636 
11:25	12.9	12.9	12.9	65	3.4	3	7	248	0.00	30.636 
11:30	13.3	13.3	13.3	66	4.1	1	2	315	0.00	30.631 
11:35	13.5	13.5	13.5	65	4.0	1	4	248	0.00	30.631 
11:40	13.6	13.6	13.6	65	4.1	1	2	270	0.00	30.631 
11:45	14.0	14.0	14.0	64	4.1	2	5	248	0.00	30.629 
11:50	14.0	14.0	14.0	64	4.1	2	5	248	0.00	30.629 
11:55	13.8	13.8	13.8	63	3.6	3	6	248	0.00	30.629 
12:00	14.1	14.1	14.1	63	3.9	1	3	248	0.00	30.631 
12:05	14.4	14.4	14.4	63	4.1	2	4	248	0.00	30.631 
12:10	14.8	14.8	14.8	61	3.8	2	4	248	0.00	30.631 
12:15	14.9	14.9	14.9	62	4.3	1	4	248	0.00	30.623 
12:20	14.9	14.9	14.9	59	3.2	2	5	248	0.00	30.623 
12:25	14.9	14.9	14.9	60	3.6	3	6	248	0.00	30.623 
12:30	15.1	15.1	15.1	60	3.7	1	4	248	0.00	30.623 
12:35	15.4	15.4	15.4	60	4.0	1	3	248	0.00	30.623 
12:40	15.6	15.6	15.6	58	3.5	2	5	248	0.00	30.623 
12:45	15.6	15.6	15.6	59	3.9	2	5	248	0.00	30.615 
12:50	15.7	15.7	15.7	58	3.6	2	4	248	0.00	30.615 
12:55	16.1	16.1	16.1	60	4.7	1	3	248	0.00	30.615 
13:00	16.1	16.1	16.1	59	4.3	1	3	270	0.00	30.614 
13:05	16.1	16.1	16.1	59	4.3	1	3	270	0.00	30.614 
13:10	16.2	16.2	16.2	58	4.1	1	3	248	0.00	30.614 
13:15	16.2	16.2	16.2	58	4.1	1	3	248	0.00	30.613 
13:20	16.4	16.4	16.4	59	4.6	1	4	270	0.00	30.613 
13:25	16.4	16.4	16.4	60	5.0	1	2	270	0.00	30.613 
13:30	16.5	16.5	16.5	58	4.3	1	2	315	0.00	30.610 
13:35	16.7	16.7	16.7	59	4.9	1	3	248	0.00	30.610 
13:40	16.9	16.9	16.9	59	5.1	1	2	225	0.00	30.610 
13:45	16.7	16.7	16.7	58	4.5	2	5	248	0.00	30.610 
13:50	16.7	16.7	16.7	60	5.3	1	3	270	0.00	30.610 
13:55	16.9	16.9	16.9	59	5.1	1	2	248	0.00	30.610 
14:00	17.0	17.0	17.0	60	5.5	1	3	248	0.00	30.610 
14:05	17.0	17.0	17.0	58	4.8	1	2	292	0.00	30.610 
14:10	17.0	17.0	17.0	59	5.2	1	4	270	0.00	30.610 
14:15	17.0	17.0	17.0	60	5.5	1	2	270	0.00	30.605 
14:20	17.0	17.0	17.0	58	4.8	1	5	270	0.00	30.605 
14:25	17.2	17.2	17.2	60	5.7	1	2	248	0.00	30.605 
14:30	17.2	17.2	17.2	58	5.0	1	2	292	0.00	30.606 
14:35	17.2	17.2	17.2	60	5.7	1	4	292	0.00	30.606 
14:40	17.2	17.2	17.2	58	5.0	1	2	248	0.00	30.606 
14:45	17.5	17.5	17.5	58	5.3	1	3	248	0.00	30.608 
14:50	17.5	17.5	17.5	58	5.3	2	4	248	0.00	30.608 
14:55	17.5	17.5	17.5	59	5.6	1	3	248	0.00	30.608 
15:00	17.7	17.7	17.7	59	5.8	1	3	248	0.00	30.610 
15:05	17.8	17.8	17.8	59	5.9	1	3	248	0.00	30.610 
15:10	18.0	18.0	18.0	60	6.5	1	3	248	0.00	30.610 
15:15	17.8	17.8	17.8	57	5.2	2	6	248	0.00	30.614 
15:20	17.7	17.7	17.7	58	5.5	2	5	248	0.00	30.614 
15:25	17.8	17.8	17.8	58	5.6	2	5	248	0.00	30.614 
15:30	18.0	18.0	18.0	57	5.4	2	5	248	0.00	30.616 
15:35	18.1	18.1	18.1	58	5.8	2	5	248	0.00	30.616 
15:40	18.0	18.0	18.0	58	5.7	1	3	248	0.00	30.616 
15:45	17.7	17.7	17.7	57	5.1	1	3	248	0.00	30.618 
15:50	17.2	17.2	17.2	59	5.4	1	2	315	0.00	30.618 
15:55	17.0	17.0	17.0	59	5.2	1	2	225	0.00	30.618 
16:00	16.9	16.9	16.9	60	5.4	1	3	270	0.00	30.627 
16:05	16.7	16.7	16.7	60	5.3	1	3	248	0.00	30.627 
16:10	16.5	16.5	16.5	60	5.1	1	2	248	0.00	30.627 
16:15	16.5	16.5	16.5	61	5.4	1	3	248	0.00	30.633 
16:20	16.2	16.2	16.2	60	4.8	1	2	292	0.00	30.633 
16:25	16.2	16.2	16.2	61	5.1	1	2	292	0.00	30.633 
16:30	16.2	16.2	16.2	62	5.5	1	2	248	0.00	30.636 
16:35	16.1	16.1	16.1	61	5.1	1	2	248	0.00	30.636 
16:40	15.9	15.9	15.9	62	5.2	0	2	248	0.00	30.636 
16:45	15.6	15.6	15.6	62	4.9	0	1	248	0.00	30.642 
16:50	15.6	15.6	15.6	62	4.9	0	1	248	0.00	30.642 
16:55	15.4	15.4	15.4	63	5.1	0	1	248	0.00	30.642 
17:00	15.1	15.1	15.1	63	4.8	0	1	248	0.00	30.648 
17:05	14.9	14.9	14.9	64	5.0	0	1	248	0.00	30.648 
17:10	14.6	14.6	14.6	65	5.0	0	1	248	0.00	30.648 
17:15	14.4	14.4	14.4	65	4.8	0	1	248	0.00	30.657 
17:20	14.3	14.3	14.3	65	4.7	0	1	248	0.00	30.657 
17:25	14.0	14.0	14.0	65	4.4	0	0	---	0.00	30.657 
17:30	13.6	13.6	13.6	66	4.4	0	0	---	0.00	30.655 
17:35	13.3	13.3	13.3	67	4.4	0	0	---	0.00	30.655 
17:40	12.9	12.9	12.9	68	4.4	0	0	---	0.00	30.655 
17:45	12.8	12.8	12.8	69	4.6	0	0	---	0.00	30.660 
17:50	12.4	12.4	12.4	69	4.2	0	0	---	0.00	30.660 
17:55	11.9	11.9	11.9	70	4.0	0	0	---	0.00	30.660 
18:00	11.7	11.7	11.7	71	4.1	0	0	---	0.00	30.663 
18:05	11.6	11.6	11.6	71	4.0	0	0	---	0.00	30.663 
18:10	11.6	11.6	11.6	71	4.0	0	0	---	0.00	30.663 
18:15	11.4	11.4	11.4	70	3.5	0	0	---	0.00	30.668 
18:20	11.4	11.4	11.4	71	3.9	0	0	---	0.00	30.668 
18:25	11.2	11.2	11.2	71	3.7	0	0	---	0.00	30.668 
18:30	11.1	11.1	11.1	72	3.9	0	1	248	0.00	30.680 
18:35	11.1	11.1	11.1	72	3.9	0	1	248	0.00	30.680 
18:40	11.1	11.1	11.1	72	3.9	0	1	248	0.00	30.680 
18:45	11.1	11.1	11.1	72	3.9	0	1	248	0.00	30.690 
18:50	11.1	11.1	11.1	71	3.6	0	1	248	0.00	30.690 
18:55	11.1	11.1	11.1	71	3.6	0	1	248	0.00	30.690 
19:00	11.1	11.1	11.1	72	3.9	0	2	248	0.00	30.699 
19:05	11.1	11.1	11.1	71	3.6	0	2	248	0.00	30.699 
19:10	10.9	10.9	10.9	71	3.4	0	0	---	0.00	30.699 
19:15	10.5	10.5	10.5	72	3.3	0	0	---	0.00	30.699 
19:20	10.2	10.2	10.2	73	3.3	0	0	---	0.00	30.699 
19:25	10.0	10.0	10.0	73	3.1	0	0	---	0.00	30.699 
19:30	9.7	9.7	9.7	73	2.8	0	0	---	0.00	30.700 
19:35	9.5	9.5	9.5	74	2.9	0	0	---	0.00	30.700 
19:40	9.3	9.3	9.3	74	2.7	0	0	---	0.00	30.700 
19:45	9.0	9.0	9.0	74	2.4	0	0	---	0.00	30.703 
19:50	8.6	8.6	8.6	75	2.3	0	0	---	0.00	30.703 
19:55	8.4	8.4	8.4	76	2.4	0	0	---	0.00	30.703 
20:00	8.3	8.3	8.3	76	2.3	0	0	---	0.00	30.697 
20:05	7.9	7.9	7.9	76	1.9	0	0	---	0.00	30.697 
20:10	7.7	7.7	7.7	77	2.0	0	0	---	0.00	30.697 
20:15	7.2	7.2	7.2	77	1.5	0	0	---	0.00	30.698 
20:20	7.0	7.0	7.0	78	1.6	0	0	---	0.00	30.698 
20:25	6.7	6.7	6.7	78	1.3	0	0	---	0.00	30.698 
20:30	6.3	6.3	6.3	79	1.2	0	0	---	0.00	30.699 
20:35	6.3	6.3	6.3	80	1.5	0	0	---	0.00	30.699 
20:40	6.0	6.0	6.0	80	1.2	0	0	---	0.00	30.699 
20:45	5.8	5.8	5.8	80	1.0	0	0	---	0.00	30.700 
20:50	5.6	5.6	5.6	81	1.1	0	0	---	0.00	30.700 
20:55	5.4	5.4	5.4	81	0.9	0	0	---	0.00	30.700 
21:00	5.4	5.4	5.4	82	1.1	0	0	---	0.00	30.704 
21:05	5.4	5.4	5.4	83	1.4	0	0	---	0.00	30.704 
21:10	5.4	5.4	5.4	83	1.4	0	0	---	0.00	30.704 
21:15	5.6	5.6	5.6	83	1.6	0	0	---	0.00	30.712 
21:20	5.6	5.6	5.6	83	1.6	0	0	---	0.00	30.712 
21:25	5.4	5.4	5.4	83	1.4	0	0	---	0.00	30.712 
21:30	5.4	5.4	5.4	82	1.1	0	0	---	0.00	30.720 
21:35	5.4	5.4	5.4	83	1.4	0	0	---	0.00	30.720 
21:40	5.6	5.6	5.6	83	1.6	0	1	248	0.00	30.720 
21:45	5.6	5.6	5.6	82	1.3	0	0	---	0.00	30.724 
21:50	5.6	5.6	5.6	81	1.1	0	0	---	0.00	30.724 
21:55	5.6	5.6	5.6	82	1.3	0	1	248	0.00	30.724 
22:00	5.6	5.6	5.6	81	1.1	0	0	---	0.00	30.725 
22:05	5.4	5.4	5.4	81	0.9	0	0	---	0.00	30.725 
22:10	5.2	5.2	5.2	81	0.7	0	0	---	0.00	30.725 
22:15	5.0	5.0	5.0	81	0.5	0	0	---	0.00	30.719 
22:20	5.0	5.0	5.0	82	0.7	0	0	---	0.00	30.719 
22:25	5.0	5.0	5.0	82	0.7	0	0	---	0.00	30.719 
22:30	4.8	4.8	4.8	82	0.5	0	0	---	0.00	30.709 
22:35	4.8	4.8	4.8	82	0.5	0	0	---	0.00	30.709 
22:40	4.8	4.8	4.8	82	0.5	0	0	---	0.00	30.709 
22:45	4.8	4.8	4.8	81	0.3	0	0	---	0.00	30.706 
22:50	4.8	4.8	4.8	81	0.3	0	0	---	0.00	30.706 
22:55	4.7	4.7	4.7	81	0.2	0	0	---	0.00	30.706 
23:00	4.5	4.5	4.5	81	-0.0	0	0	---	0.00	30.706 
23:05	4.3	4.3	4.3	81	-0.2	0	0	---	0.00	30.706 
23:10	4.1	4.1	4.1	81	-0.4	0	0	---	0.00	30.706 
23:15	4.1	4.1	4.1	82	-0.1	0	0	---	0.00	30.695 
23:20	4.1	4.1	4.1	82	-0.1	0	0	---	0.00	30.695 
23:25	4.1	4.1	4.1	82	-0.1	0	0	---	0.00	30.695 
23:30	3.9	3.9	3.9	82	-0.3	0	0	---	0.00	30.692 
23:35	3.7	3.7	3.7	82	-0.5	0	0	---	0.00	30.692 
23:40	3.7	3.7	3.7	82	-0.5	0	0	---	0.00	30.692 
23:45	3.5	3.5	3.5	82	-0.7	0	0	---	0.00	30.694 
23:50	3.5	3.5	3.5	82	-0.7	0	0	---	0.00	30.694 
23:55	3.4	3.4	3.4	81	-1.1	0	0	---	0.00	30.694 

CoCoRaHS
IN-AL-39
A2 Web Hosting
Creative Commons License
GoDaddy
Look for:

loaded 2017-12-10 21:43:21 • last modified 2010-11-18 10:43:29
Privacy PolicyDisclaimer
• wx.awcolley.com is powered by PmWiki v.2002016 •
• all content (unless otherwise noted) © 2017 A W Colley